Time;durP1;ratioP1;P1;durP2;ratioP2;P2;SDS_P1;SDS_P2;PMS_P1;PMS_P2;Temp;Humidity;BMP_temperature;BMP_pressure;BME280_temperature;BME280_humidity;BME280_pressure;Samples;Min_cycle;Max_cycle;Signal;HPM_P1;HPM_P2
2021/07/21 00:55:06;;;;;;;18.80;12.13;;;563.60;2432.00;;;;;;4877538;29;20048;-86
2021/07/21 00:57:32;;;;;;;15.52;11.57;;;563.50;2432.00;;;;;;4939808;29;20099;-86
2021/07/21 00:59:58;;;;;;;16.75;12.15;;;563.50;2432.00;;;;;;4939960;29;20035;-86
2021/07/21 01:02:25;;;;;;;17.50;12.35;;;563.60;2432.00;;;;;;4939826;29;20031;-85
2021/07/21 01:04:51;;;;;;;17.38;11.48;;;563.60;2432.00;;;;;;4940210;29;20070;-86
2021/07/21 01:07:18;;;;;;;17.92;12.68;;;563.60;2432.00;;;;;;4939553;29;20027;-86
2021/07/21 01:09:45;;;;;;;16.10;11.00;;;563.60;2432.00;;;;;;4940044;29;20106;-85
2021/07/21 01:12:28;;;;;;;19.13;11.23;;;563.60;2432.00;;;;;;4939780;29;20027;-85
2021/07/21 01:15:12;;;;;;;16.38;11.30;;;563.60;2432.00;;;;;;4939622;29;20047;-86
2021/07/21 01:18:01;;;;;;;16.33;11.43;;;563.60;2432.00;;;;;;4939739;29;20033;-86
2021/07/21 01:20:30;;;;;;;18.58;13.40;;;563.60;2432.00;;;;;;4939628;29;20087;-86
2021/07/21 01:23:13;;;;;;;15.85;11.85;;;563.50;2432.00;;;;;;4939339;29;20083;-85
2021/07/21 01:25:56;;;;;;;16.13;11.15;;;563.50;2432.00;;;;;;4939628;29;20086;-86
2021/07/21 01:28:26;;;;;;;16.20;10.48;;;563.40;2432.00;;;;;;4939625;29;20397;-86
2021/07/21 01:30:52;;;;;;;14.63;10.65;;;563.40;2432.00;;;;;;4956551;29;20042;-86
2021/07/21 01:33:21;;;;;;;16.95;11.05;;;563.40;2432.00;;;;;;4944210;29;20023;-84
2021/07/21 01:35:55;;;;;;;16.35;10.60;;;563.40;2432.00;;;;;;4944852;29;20150;-85
2021/07/21 01:38:42;;;;;;;14.38;10.93;;;563.40;2432.00;;;;;;4940165;29;20038;-87
2021/07/21 01:41:18;;;;;;;15.40;11.65;;;563.40;2432.00;;;;;;4956404;29;20027;-86
2021/07/21 01:43:47;;;;;;;16.38;11.40;;;563.30;2432.00;;;;;;4940026;29;20099;-86
2021/07/21 01:46:15;;;;;;;17.17;11.18;;;563.30;2432.00;;;;;;4956489;29;20024;-86
2021/07/21 01:48:45;;;;;;;16.67;11.38;;;563.30;2432.00;;;;;;4939469;29;20066;-86
2021/07/21 01:51:13;;;;;;;17.60;11.65;;;563.30;2432.00;;;;;;4939322;29;20193;-86
2021/07/21 01:53:39;;;;;;;17.27;11.30;;;563.30;2432.00;;;;;;4939130;29;20047;-86
2021/07/21 01:56:08;;;;;;;15.18;10.85;;;538.40;2406.40;;;;;;4939330;29;20122;-86
2021/07/21 01:58:36;;;;;;;13.48;10.75;;;563.20;2432.00;;;;;;4939437;29;20067;-86
2021/07/21 02:01:04;;;;;;;14.68;11.48;;;563.30;2432.00;;;;;;4939300;29;20027;-86
2021/07/21 02:03:31;;;;;;;16.45;11.10;;;563.20;2432.00;;;;;;4939353;29;20473;-86
2021/07/21 02:06:03;;;;;;;13.50;10.75;;;563.20;2432.00;;;;;;4939484;29;20066;-86
2021/07/21 02:08:29;;;;;;;16.57;11.20;;;563.20;2432.00;;;;;;4939136;29;20434;-85
2021/07/21 02:11:01;;;;;;;16.27;10.52;;;538.50;2406.40;;;;;;4939029;29;20126;-86
2021/07/21 02:13:27;;;;;;;18.02;11.20;;;538.50;2406.40;;;;;;4939079;29;20035;-85
2021/07/21 02:15:54;;;;;;;14.43;10.65;;;538.50;2406.40;;;;;;4939078;29;20027;-87
2021/07/21 02:18:21;;;;;;;16.77;10.98;;;538.50;2406.40;;;;;;4939195;29;20118;-87
2021/07/21 02:20:47;;;;;;;14.43;10.25;;;538.50;2406.40;;;;;;4939156;29;20118;-85
2021/07/21 02:23:15;;;;;;;16.65;10.95;;;538.50;2406.40;;;;;;4938615;29;20118;-85
2021/07/21 02:25:41;;;;;;;15.15;10.50;;;538.50;2406.40;;;;;;4939000;29;20027;-85
2021/07/21 02:28:07;;;;;;;16.50;11.55;;;563.30;2432.00;;;;;;4939028;29;20028;-86
2021/07/21 02:30:34;;;;;;;13.80;9.77;;;538.50;2406.40;;;;;;4938947;29;20381;-86
2021/07/21 02:33:08;;;;;;;13.90;10.82;;;538.40;2406.40;;;;;;4938847;29;20019;-86
2021/07/21 02:35:35;;;;;;;15.32;10.27;;;538.40;2406.40;;;;;;4938743;29;20039;-85
2021/07/21 02:38:02;;;;;;;13.38;10.45;;;538.40;2406.40;;;;;;4938663;29;20027;-85
2021/07/21 02:40:29;;;;;;;13.13;10.07;;;538.40;2406.40;;;;;;4938641;29;20027;-85
2021/07/21 02:42:54;;;;;;;16.63;9.98;;;538.40;2406.40;;;;;;4938735;28;20035;-85
2021/07/21 02:45:20;;;;;;;16.05;10.93;;;538.40;2406.40;;;;;;4942320;29;20039;-85
2021/07/21 02:47:47;;;;;;;15.98;10.63;;;538.40;2406.40;;;;;;4942140;29;20027;-85
2021/07/21 02:50:17;;;;;;;14.15;10.77;;;538.40;2406.40;;;;;;4942315;29;20028;-85
2021/07/21 02:53:02;;;;;;;17.73;10.93;;;538.30;2406.40;;;;;;4931011;29;20051;-85
2021/07/21 02:55:51;;;;;;;17.17;11.23;;;538.20;2406.40;;;;;;4923097;29;20039;-86
2021/07/21 02:58:50;;;;;;;21.98;11.02;;;538.20;2406.40;;;;;;4922346;29;20042;-86
2021/07/21 03:01:20;;;;;;;17.48;10.90;;;538.20;2406.40;;;;;;4923079;29;20032;-86
2021/07/21 03:03:48;;;;;;;18.48;10.10;;;538.00;2406.40;;;;;;4922995;29;20520;-85
2021/07/21 03:06:18;;;;;;;12.90;11.15;;;538.00;2406.40;;;;;;4922800;29;20553;-86
2021/07/21 03:08:45;;;;;;;18.20;10.95;;;538.00;2406.40;;;;;;4923050;29;20777;-85
2021/07/21 03:11:13;;;;;;;18.50;11.50;;;538.00;2406.40;;;;;;4922710;29;20031;-85
2021/07/21 03:13:45;;;;;;;17.35;11.18;;;538.00;2406.40;;;;;;4922624;29;20139;-85
2021/07/21 03:16:12;;;;;;;16.65;11.50;;;538.00;2406.40;;;;;;4922805;29;20474;-85
2021/07/21 03:18:40;;;;;;;23.75;12.73;;;538.00;2406.40;;;;;;4922121;29;20060;-85
2021/07/21 03:21:08;;;;;;;14.20;11.40;;;538.00;2406.40;;;;;;4922649;29;20028;-85
2021/07/21 03:23:36;;;;;;;14.75;11.25;;;538.00;2406.40;;;;;;4922557;29;20043;-86
2021/07/21 03:26:05;;;;;;;15.43;10.68;;;538.00;2406.40;;;;;;4922587;29;20083;-85
2021/07/21 03:28:32;;;;;;;17.83;11.82;;;538.00;2406.40;;;;;;4922621;29;20031;-85
2021/07/21 03:30:59;;;;;;;17.67;10.95;;;538.00;2406.40;;;;;;4922412;29;20496;-86
2021/07/21 03:33:28;;;;;;;18.17;11.20;;;537.90;2406.40;;;;;;4922397;29;20039;-86
2021/07/21 03:35:59;;;;;;;14.38;11.70;;;537.90;2406.40;;;;;;4922445;29;20027;-86
2021/07/21 03:38:26;;;;;;;16.20;10.45;;;538.00;2406.40;;;;;;4923077;29;20042;-86
2021/07/21 03:40:53;;;;;;;16.33;11.23;;;538.00;2406.40;;;;;;4922404;29;20055;-86
2021/07/21 03:43:21;;;;;;;18.00;11.40;;;537.90;2406.40;;;;;;4922170;29;20035;-86
2021/07/21 03:45:49;;;;;;;14.55;11.65;;;537.90;2406.40;;;;;;4922211;29;20027;-85
2021/07/21 03:48:16;;;;;;;18.33;11.40;;;537.90;2406.40;;;;;;4922059;29;20461;-86
2021/07/21 03:50:42;;;;;;;20.48;10.88;;;537.90;2406.40;;;;;;4922312;29;20032;-87
2021/07/21 03:53:08;;;;;;;16.15;11.45;;;537.90;2406.40;;;;;;4951254;28;20397;-86
2021/07/21 03:55:38;;;;;;;16.52;10.75;;;537.90;2406.40;;;;;;4959737;28;20045;-86
2021/07/21 03:58:05;;;;;;;17.48;11.10;;;537.80;2406.40;;;;;;4960418;28;20034;-86
2021/07/21 04:00:32;;;;;;;14.18;11.32;;;537.80;2406.40;;;;;;4960189;28;20049;-87
2021/07/21 04:03:00;;;;;;;16.13;11.45;;;537.80;2406.40;;;;;;4960328;28;20495;-86
2021/07/21 04:05:27;;;;;;;14.70;10.45;;;537.80;2406.40;;;;;;4960200;28;20035;-86
2021/07/21 04:07:54;;;;;;;14.98;11.32;;;537.70;2406.40;;;;;;4960149;28;20031;-87
2021/07/21 04:10:21;;;;;;;13.93;11.30;;;537.70;2406.40;;;;;;4960203;28;20031;-87
2021/07/21 04:12:51;;;;;;;14.70;11.40;;;537.60;2406.40;;;;;;4960394;28;20035;-87
2021/07/21 04:15:21;;;;;;;16.02;10.82;;;537.60;2406.40;;;;;;4959884;28;20027;-87
2021/07/21 04:17:49;;;;;;;14.93;11.52;;;537.60;2406.40;;;;;;4960100;28;20035;-87
2021/07/21 04:20:16;;;;;;;18.23;11.43;;;537.70;2406.40;;;;;;4959739;28;20034;-87
2021/07/21 04:22:42;;;;;;;15.30;11.27;;;512.80;2380.80;;;;;;4959810;28;20043;-86
2021/07/21 04:25:13;;;;;;;16.13;11.48;;;537.90;2406.40;;;;;;4959853;28;20034;-87
2021/07/21 04:27:41;;;;;;;22.15;11.45;;;537.80;2406.40;;;;;;4959705;28;20038;-86
2021/07/21 04:30:10;;;;;;;15.80;10.50;;;537.80;2406.40;;;;;;4959691;28;20170;-86
2021/07/21 04:32:37;;;;;;;15.75;11.15;;;537.90;2406.40;;;;;;4959945;28;20030;-86
2021/07/21 04:35:09;;;;;;;14.98;11.30;;;537.90;2406.40;;;;;;4959608;28;20042;-86
2021/07/21 04:37:39;;;;;;;20.30;11.93;;;538.00;2406.40;;;;;;4976677;28;20023;-87
2021/07/21 04:40:06;;;;;;;18.23;12.18;;;537.90;2406.40;;;;;;4959385;28;20035;-87
2021/07/21 04:42:32;;;;;;;22.73;11.05;;;538.00;2406.40;;;;;;4959266;28;20030;-87
2021/07/21 04:44:58;;;;;;;17.45;12.07;;;538.00;2406.40;;;;;;4959956;28;20392;-86
2021/07/21 04:47:24;;;;;;;17.85;11.13;;;538.00;2406.40;;;;;;4966143;28;20034;-86
2021/07/21 04:49:52;;;;;;;20.73;11.85;;;538.00;2406.40;;;;;;4965582;28;20027;-86
2021/07/21 04:52:23;;;;;;;24.17;11.68;;;538.00;2406.40;;;;;;4959066;28;20051;-87
2021/07/21 04:54:49;;;;;;;15.80;11.02;;;538.00;2406.40;;;;;;4959266;28;20089;-86
2021/07/21 04:57:15;;;;;;;17.90;12.10;;;538.00;2406.40;;;;;;4959182;28;20039;-87
2021/07/21 04:59:41;;;;;;;17.92;11.48;;;538.00;2406.40;;;;;;4958995;28;20027;-87
2021/07/21 05:02:07;;;;;;;15.90;11.45;;;538.20;2406.40;;;;;;4959577;28;20050;-87
2021/07/21 05:04:35;;;;;;;21.88;11.55;;;538.20;2406.40;;;;;;4959072;28;20027;-87
2021/07/21 05:07:01;;;;;;;19.05;12.27;;;538.30;2406.40;;;;;;4958168;28;20027;-86
2021/07/21 05:09:27;;;;;;;19.25;11.63;;;538.00;2406.40;;;;;;4959397;28;20031;-87
2021/07/21 05:11:53;;;;;;;13.48;10.25;;;538.40;2406.40;;;;;;4959249;28;20027;-87
2021/07/21 05:14:19;;;;;;;17.73;12.95;;;538.40;2406.40;;;;;;4958933;28;20037;-87
2021/07/21 05:16:44;;;;;;;17.10;11.68;;;538.50;2406.40;;;;;;4958917;28;20042;-87
2021/07/21 05:19:11;;;;;;;19.77;11.88;;;538.50;2406.40;;;;;;4959097;28;20027;-87
2021/07/21 05:21:37;;;;;;;17.27;11.63;;;563.20;2432.00;;;;;;4959029;28;20030;-88
2021/07/21 05:24:04;;;;;;;15.95;11.60;;;538.50;2406.40;;;;;;4959052;28;20069;-87
2021/07/21 05:26:30;;;;;;;15.82;11.52;;;563.90;2432.00;;;;;;4958974;28;20027;-86
2021/07/21 05:28:57;;;;;;;19.13;11.95;;;563.30;2432.00;;;;;;4958803;28;20038;-88
2021/07/21 05:31:23;;;;;;;19.92;12.00;;;563.30;2432.00;;;;;;4958724;28;20027;-87
2021/07/21 05:33:54;;;;;;;17.52;12.23;;;563.40;2432.00;;;;;;4958696;28;20034;-86
2021/07/21 05:36:20;;;;;;;17.17;11.85;;;563.50;2432.00;;;;;;4958789;28;20030;-87
2021/07/21 05:38:46;;;;;;;20.70;12.27;;;563.60;2432.00;;;;;;4958628;28;20034;-87
2021/07/21 05:41:56;;;;;;;19.98;13.30;;;589.20;2432.00;;;;;;4958707;28;20031;-87
2021/07/21 05:44:53;;;;;;;18.60;12.73;;;563.60;2432.00;;;;;;4958671;28;20031;-86
2021/07/21 05:47:19;;;;;;;20.02;13.88;;;563.60;2432.00;;;;;;4957012;28;20109;-87
2021/07/21 05:49:44;;;;;;;19.27;12.68;;;563.70;2432.00;;;;;;4958596;28;20026;-87
2021/07/21 05:52:12;;;;;;;17.67;11.10;;;563.70;2432.00;;;;;;4958478;28;20113;-87
2021/07/21 05:54:44;;;;;;;18.20;12.57;;;563.80;2432.00;;;;;;4958387;28;20126;-86
2021/07/21 05:57:12;;;;;;;18.55;11.82;;;563.90;2432.00;;;;;;4958480;28;20461;-87
2021/07/21 05:59:43;;;;;;;16.33;11.65;;;563.90;2432.00;;;;;;4958275;28;20053;-87
2021/07/21 06:02:09;;;;;;;16.30;12.00;;;564.00;2432.00;;;;;;4958371;28;20030;-87
2021/07/21 06:05:21;;;;;;;14.35;11.48;;;564.10;2432.00;;;;;;4958531;28;20035;-86
2021/07/21 06:07:52;;;;;;;18.75;12.05;;;564.10;2432.00;;;;;;4958592;28;20066;-87
2021/07/21 06:10:18;;;;;;;20.00;12.83;;;588.80;2432.00;;;;;;4958413;28;20070;-86
2021/07/21 06:12:47;;;;;;;18.17;11.02;;;588.80;2432.00;;;;;;4958183;28;20260;-87
2021/07/21 06:15:13;;;;;;;17.17;12.63;;;588.90;2432.00;;;;;;4958599;28;20054;-86
2021/07/21 06:17:39;;;;;;;20.45;12.80;;;589.00;2432.00;;;;;;4958329;28;20468;-87
2021/07/21 06:20:09;;;;;;;16.88;12.10;;;589.00;2432.00;;;;;;4961585;28;20030;-86
2021/07/21 06:22:38;;;;;;;18.05;12.10;;;589.10;2432.00;;;;;;4961924;28;20027;-87
2021/07/21 06:25:07;;;;;;;19.38;12.30;;;589.20;2432.00;;;;;;4961337;28;20043;-86
2021/07/21 06:27:33;;;;;;;16.13;11.60;;;589.20;2432.00;;;;;;4961921;28;20037;-85
2021/07/21 06:29:59;;;;;;;15.43;11.82;;;589.30;2432.00;;;;;;4961823;28;20031;-86
2021/07/21 06:32:25;;;;;;;15.45;12.02;;;589.30;2432.00;;;;;;4961878;28;20122;-85
2021/07/21 06:34:50;;;;;;;16.92;11.85;;;589.40;2432.00;;;;;;4961558;28;20035;-86
2021/07/21 06:37:16;;;;;;;15.52;10.68;;;589.50;2432.00;;;;;;4961511;28;20030;-84
2021/07/21 06:39:42;;;;;;;18.50;12.13;;;589.60;2432.00;;;;;;4961751;28;20031;-85
2021/07/21 06:42:08;;;;;;;14.45;11.20;;;589.60;2432.00;;;;;;4961399;28;20361;-84
2021/07/21 06:44:33;;;;;;;17.20;11.75;;;589.60;2432.00;;;;;;4961588;28;20065;-85
2021/07/21 06:46:59;;;;;;;18.15;12.27;;;589.70;2432.00;;;;;;4961267;28;20026;-86
2021/07/21 06:49:25;;;;;;;19.13;12.93;;;589.70;2432.00;;;;;;4961360;28;20086;-88
2021/07/21 06:51:51;;;;;;;16.55;13.27;;;614.50;2432.00;;;;;;4961187;28;20090;-87
2021/07/21 06:54:17;;;;;;;20.88;13.80;;;614.50;2432.00;;;;;;4961298;28;20038;-86
2021/07/21 06:56:43;;;;;;;20.05;12.05;;;614.50;2432.00;;;;;;4961444;28;20026;-86
2021/07/21 06:59:09;;;;;;;15.65;10.95;;;614.70;2432.00;;;;;;4961020;28;20019;-86
2021/07/21 07:01:35;;;;;;;15.48;11.10;;;614.70;2432.00;;;;;;4961382;28;20483;-88
2021/07/21 07:04:00;;;;;;;14.77;10.57;;;614.80;2432.00;;;;;;4961145;28;20476;-85
2021/07/21 07:06:26;;;;;;;14.98;11.15;;;614.90;2432.00;;;;;;4955328;28;20113;-86
2021/07/21 07:08:52;;;;;;;14.75;10.85;;;614.90;2432.00;;;;;;4954459;29;20023;-86
2021/07/21 07:11:19;;;;;;;14.98;10.80;;;614.90;2432.00;;;;;;4959572;28;20031;-87
2021/07/21 07:13:45;;;;;;;14.98;11.65;;;615.20;2432.00;;;;;;4958310;28;20030;-84
2021/07/21 07:16:14;;;;;;;15.80;11.68;;;615.00;2432.00;;;;;;4949605;29;20026;-84
2021/07/21 07:18:40;;;;;;;14.70;10.68;;;615.30;2432.00;;;;;;4952430;28;20078;-87
2021/07/21 07:21:06;;;;;;;13.95;10.65;;;615.30;2432.00;;;;;;4952533;28;20023;-89
2021/07/21 07:23:32;;;;;;;15.38;10.43;;;640.00;2406.40;;;;;;4952778;28;20038;-87
2021/07/21 07:25:59;;;;;;;13.75;10.48;;;640.00;2329.60;;;;;;4947528;28;20050;-88
2021/07/21 07:28:25;;;;;;;15.55;10.75;;;614.60;2355.20;;;;;;4952974;29;20473;-87
2021/07/21 07:30:51;;;;;;;14.68;10.98;;;615.30;2355.20;;;;;;4940420;29;20027;-86
2021/07/21 07:33:17;;;;;;;15.80;10.40;;;640.00;2278.40;;;;;;4955262;28;20431;-83
2021/07/21 07:35:43;;;;;;;13.93;11.38;;;640.00;2355.20;;;;;;4960341;28;20030;-86
2021/07/21 07:38:11;;;;;;;22.15;12.68;;;640.10;2304.00;;;;;;4960141;28;20027;-85
2021/07/21 07:40:41;;;;;;;17.35;11.13;;;640.20;2278.40;;;;;;4960352;28;20035;-87
2021/07/21 07:56:55;;;;;;;15.98;11.48;;;640.70;2176.00;;;;;;4982417;28;20113;-86
2021/07/21 07:59:21;;;;;;;16.38;10.13;;;640.70;2201.60;;;;;;4960262;28;20038;-86
2021/07/21 08:02:10;;;;;;;14.60;10.98;;;615.30;2150.40;;;;;;4962338;28;20029;-87
2021/07/21 08:08:06;;;;;;;16.58;10.50;;;640.70;2176.00;;;;;;4898555;28;20040;-86
2021/07/21 08:10:35;;;;;;;13.15;8.82;;;640.90;2124.80;;;;;;4959491;28;20029;-87
2021/07/21 08:13:01;;;;;;;13.02;10.27;;;640.90;2099.20;;;;;;4959406;28;20027;-86
2021/07/21 08:15:27;;;;;;;13.48;10.73;;;640.70;2124.80;;;;;;4959781;28;20082;-84
2021/07/21 08:17:53;;;;;;;13.48;9.70;;;640.90;2048.00;;;;;;4956772;28;20472;-84
2021/07/21 08:20:22;;;;;;;13.38;9.68;;;640.90;2022.40;;;;;;4957845;28;20481;-86
2021/07/21 08:22:48;;;;;;;14.75;9.15;;;665.80;2022.40;;;;;;4955928;28;20023;-83
2021/07/21 08:25:19;;;;;;;13.80;9.00;;;665.90;2022.40;;;;;;4959258;28;20163;-86
2021/07/21 08:27:46;;;;;;;12.32;9.30;;;666.00;2048.00;;;;;;4959484;28;20034;-82
2021/07/21 08:30:13;;;;;;;12.40;9.55;;;666.00;1996.80;;;;;;4959416;28;20077;-84
2021/07/21 08:32:44;;;;;;;12.35;9.95;;;666.00;1996.80;;;;;;4959192;28;20113;-87
2021/07/21 08:35:11;;;;;;;12.13;8.55;;;666.30;1971.20;;;;;;4959432;28;20031;-85
2021/07/21 08:37:37;;;;;;;14.10;9.85;;;666.30;1894.40;;;;;;4959401;28;20122;-85
2021/07/21 08:40:05;;;;;;;13.85;9.77;;;666.50;1945.60;;;;;;4959469;28;20069;-86
2021/07/21 08:42:32;;;;;;;12.23;9.38;;;691.30;1945.60;;;;;;4958804;28;20181;-84
2021/07/21 08:44:58;;;;;;;13.15;9.50;;;666.30;1894.40;;;;;;4959244;28;20026;-85
2021/07/21 08:47:24;;;;;;;11.60;9.13;;;666.40;1920.00;;;;;;4959320;28;20038;-88
2021/07/21 08:49:50;;;;;;;13.48;9.77;;;666.30;1945.60;;;;;;4959431;28;20027;-86
2021/07/21 08:52:17;;;;;;;15.60;10.32;;;666.00;1971.20;;;;;;4959541;28;20038;-87
2021/07/21 08:54:46;;;;;;;13.93;9.70;;;666.00;1996.80;;;;;;4958828;28;20114;-87
2021/07/21 08:57:15;;;;;;;13.30;9.65;;;665.90;1945.60;;;;;;4958641;28;20045;-85
2021/07/21 08:59:45;;;;;;;12.98;9.52;;;665.80;1920.00;;;;;;4959063;28;20481;-84
2021/07/21 09:02:14;;;;;;;11.93;9.63;;;665.80;1996.80;;;;;;4977144;28;20031;-84
2021/07/21 09:04:41;;;;;;;12.93;9.98;;;666.00;1945.60;;;;;;4961643;28;20027;-84
2021/07/21 09:07:08;;;;;;;16.63;11.25;;;665.90;2048.00;;;;;;4960858;28;20022;-86
2021/07/21 09:09:35;;;;;;;14.05;10.40;;;666.00;1996.80;;;;;;4961101;28;20066;-84
2021/07/21 09:12:02;;;;;;;12.45;9.93;;;666.00;1996.80;;;;;;4958698;28;20031;-85
2021/07/21 09:14:31;;;;;;;11.93;9.63;;;666.00;2022.40;;;;;;4958366;28;20080;-90
2021/07/21 09:17:11;;;;;;;11.90;9.30;;;666.20;1971.20;;;;;;4958970;28;20023;-87
2021/07/21 09:19:41;;;;;;;17.25;10.13;;;666.00;1996.80;;;;;;4958775;28;20472;-84
2021/07/21 09:22:24;;;;;;;18.88;10.80;;;665.90;1971.20;;;;;;4958796;28;20169;-84
2021/07/21 09:25:13;;;;;;;15.38;11.13;;;666.50;2073.60;;;;;;4958302;28;20089;-86
2021/07/21 09:27:40;;;;;;;16.75;9.88;;;691.20;2022.40;;;;;;4958808;28;20118;-85
2021/07/21 09:30:07;;;;;;;15.63;12.50;;;691.40;1945.60;;;;;;4958332;28;20026;-85
2021/07/21 09:32:57;;;;;;;14.02;9.70;;;691.40;1996.80;;;;;;4958346;28;20031;-86
2021/07/21 09:35:26;;;;;;;13.52;9.90;;;691.50;1945.60;;;;;;4958432;28;20034;-85
2021/07/21 09:37:52;;;;;;;14.60;9.63;;;691.80;1945.60;;;;;;4958577;28;20027;-86
2021/07/21 09:40:18;;;;;;;12.93;10.20;;;691.80;1868.80;;;;;;4958636;28;20129;-87
2021/07/21 09:42:44;;;;;;;14.00;10.70;;;691.80;1868.80;;;;;;4958251;28;20054;-85
2021/07/21 09:45:13;;;;;;;12.68;9.93;;;691.90;1894.40;;;;;;4958408;28;20129;-88
2021/07/21 09:47:47;;;;;;;14.77;9.60;;;691.80;1971.20;;;;;;4936382;29;20031;-87
2021/07/21 09:50:23;;;;;;;12.80;9.43;;;691.90;1894.40;;;;;;4920506;29;20035;-83
2021/07/21 09:52:55;;;;;;;13.23;9.70;;;691.90;1868.80;;;;;;4919974;29;20390;-85
2021/07/21 09:55:24;;;;;;;11.15;9.20;;;691.90;1920.00;;;;;;4955994;28;20057;-85
2021/07/21 09:58:04;;;;;;;16.98;10.95;;;691.80;1868.80;;;;;;4961577;28;20027;-83
2021/07/21 10:00:39;;;;;;;14.10;10.25;;;691.80;1868.80;;;;;;4962106;28;20121;-83
2021/07/21 10:03:10;;;;;;;12.30;10.02;;;691.90;1843.20;;;;;;4979430;28;20074;-85
2021/07/21 10:06:02;;;;;;;15.63;10.82;;;691.80;1920.00;;;;;;4962177;28;20452;-82
2021/07/21 10:08:48;;;;;;;13.52;9.55;;;716.90;1971.20;;;;;;4961651;28;20029;-85
2021/07/21 10:11:32;;;;;;;15.90;10.23;;;717.20;1894.40;;;;;;4942240;29;20118;-84
2021/07/21 10:14:01;;;;;;;12.05;9.43;;;717.10;1868.80;;;;;;4961693;28;20174;-84
2021/07/21 10:17:06;;;;;;;13.52;9.75;;;692.00;1817.60;;;;;;4952948;28;20114;-85
2021/07/21 10:19:33;;;;;;;13.23;9.52;;;692.10;1843.20;;;;;;4900701;29;20474;-84
2021/07/21 10:22:02;;;;;;;13.00;9.43;;;692.10;1843.20;;;;;;4964818;28;20041;-85
2021/07/21 10:24:30;;;;;;;14.20;9.93;;;692.00;1843.20;;;;;;4942538;29;20031;-82
2021/07/21 10:26:56;;;;;;;13.57;10.02;;;716.80;1894.40;;;;;;4942351;29;20062;-83
2021/07/21 10:29:23;;;;;;;13.00;9.43;;;692.10;1894.40;;;;;;4941904;29;20023;-84
2021/07/21 10:31:50;;;;;;;14.82;9.40;;;692.10;1868.80;;;;;;4941981;29;20038;-86
2021/07/21 10:34:23;;;;;;;14.35;9.90;;;692.10;1843.20;;;;;;4941731;29;20165;-84
2021/07/21 10:37:01;;;;;;;12.43;9.85;;;716.80;1868.80;;;;;;4942190;29;20039;-82
2021/07/21 11:48:22;;;;;;;12.60;8.10;;;768.60;1638.40;;;;;;4957603;29;20098;-82
2021/07/21 11:50:48;;;;;;;10.80;8.38;;;768.60;1612.80;;;;;;4938276;29;20047;-80
2021/07/21 11:53:17;;;;;;;12.77;8.63;;;768.70;1612.80;;;;;;4940669;29;20031;-81
2021/07/21 11:55:43;;;;;;;19.30;8.60;;;793.70;1587.20;;;;;;4940348;29;20036;-82
2021/07/21 11:58:13;;;;;;;12.43;8.35;;;768.80;1561.60;;;;;;4940477;29;20078;-81
2021/07/21 12:00:41;;;;;;;12.70;8.27;;;768.90;1587.20;;;;;;4940222;29;20090;-82
2021/07/21 12:03:11;;;;;;;10.40;8.65;;;768.50;1561.60;;;;;;4940291;29;20089;-81
2021/07/21 12:05:37;;;;;;;11.20;8.50;;;768.60;1561.60;;;;;;4940223;29;20028;-82
2021/07/21 12:08:06;;;;;;;11.05;8.43;;;768.90;1612.80;;;;;;4940989;29;20481;-84
2021/07/21 12:10:35;;;;;;;11.77;8.85;;;768.90;1561.60;;;;;;4956989;29;20054;-85
2021/07/21 12:13:11;;;;;;;12.73;8.38;;;768.80;1561.60;;;;;;4940225;29;20031;-83
2021/07/21 12:15:37;;;;;;;10.73;8.15;;;768.50;1536.00;;;;;;4957403;28;20031;-83
2021/07/21 12:18:11;;;;;;;14.60;8.48;;;768.50;1561.60;;;;;;4939782;29;20039;-83
2021/07/21 12:20:39;;;;;;;10.68;8.40;;;768.90;1561.60;;;;;;4940061;29;20023;-82
2021/07/21 12:23:05;;;;;;;11.38;8.10;;;793.60;1587.20;;;;;;4946718;29;20034;-82
2021/07/21 12:25:32;;;;;;;12.40;8.25;;;768.30;1587.20;;;;;;4939012;29;20027;-81
2021/07/21 12:27:59;;;;;;;11.45;7.90;;;743.30;1587.20;;;;;;4938959;29;20465;-82
2021/07/21 12:30:26;;;;;;;14.75;8.50;;;768.40;1536.00;;;;;;4937265;29;20035;-82
2021/07/21 12:32:53;;;;;;;10.52;7.60;;;768.60;1536.00;;;;;;4940010;29;20067;-84
2021/07/21 12:35:24;;;;;;;9.57;7.45;;;768.70;1536.00;;;;;;4938346;29;20027;-80
2021/07/21 12:37:52;;;;;;;10.73;7.50;;;793.80;1536.00;;;;;;4955266;29;20067;-84
2021/07/21 12:40:24;;;;;;;10.43;8.27;;;794.00;1536.00;;;;;;4939055;29;20034;-84
2021/07/21 12:42:51;;;;;;;10.73;7.78;;;794.00;1510.40;;;;;;4939118;29;20035;-81
2021/07/21 12:45:19;;;;;;;10.27;8.10;;;794.10;1587.20;;;;;;4938725;29;20050;-82
2021/07/21 12:47:53;;;;;;;9.88;7.78;;;794.40;1484.80;;;;;;4939425;29;20038;-82
2021/07/21 12:50:23;;;;;;;12.82;8.02;;;794.50;1510.40;;;;;;4939408;29;20032;-82
2021/07/21 12:52:53;;;;;;;12.13;7.25;;;794.20;1484.80;;;;;;4956388;29;20421;-81
2021/07/21 12:55:49;;;;;;;10.65;8.27;;;794.50;1510.40;;;;;;4939259;29;20086;-81
2021/07/21 12:58:19;;;;;;;9.45;7.53;;;819.30;1587.20;;;;;;4938885;29;20035;-81
2021/07/21 13:00:51;;;;;;;12.50;7.70;;;794.50;1536.00;;;;;;4939253;29;20568;-81
2021/07/21 13:03:19;;;;;;;11.60;7.78;;;819.30;1536.00;;;;;;4939172;29;20484;-81
2021/07/21 13:05:59;;;;;;;11.32;7.10;;;819.20;1484.80;;;;;;4938592;29;20035;-83
2021/07/21 13:08:28;;;;;;;13.32;8.57;;;819.30;1484.80;;;;;;4939016;29;20031;-82
2021/07/21 13:11:03;;;;;;;10.80;8.00;;;819.20;1484.80;;;;;;4939056;29;20074;-82
2021/07/21 13:13:33;;;;;;;9.70;7.15;;;819.40;1510.40;;;;;;4938429;29;20073;-81
2021/07/21 13:16:06;;;;;;;10.43;6.88;;;819.30;1510.40;;;;;;4938597;29;20041;-81
2021/07/21 13:18:38;;;;;;;10.05;7.40;;;819.60;1510.40;;;;;;4938935;29;20039;-81
2021/07/21 13:21:25;;;;;;;10.27;7.68;;;819.70;1510.40;;;;;;4938687;29;20413;-80
2021/07/21 13:23:55;;;;;;;9.32;7.10;;;819.80;1510.40;;;;;;4938883;29;20035;-82
2021/07/21 13:26:21;;;;;;;10.98;7.47;;;819.50;1536.00;;;;;;4938579;29;20031;-79
2021/07/21 13:28:52;;;;;;;11.65;7.30;;;794.10;1587.20;;;;;;4954882;28;20023;-80
2021/07/21 13:31:27;;;;;;;10.40;7.30;;;768.90;1587.20;;;;;;4938609;29;20105;-82
2021/07/21 13:33:57;;;;;;;12.85;8.65;;;768.40;1612.80;;;;;;4938635;29;20059;-79
2021/07/21 13:36:28;;;;;;;10.15;8.18;;;768.50;1587.20;;;;;;4938648;29;20541;-81
2021/07/21 13:39:00;;;;;;;13.43;7.15;;;768.90;1536.00;;;;;;4938827;29;20470;-84
2021/07/21 13:41:29;;;;;;;12.02;8.35;;;793.70;1587.20;;;;;;4938431;29;20031;-81
2021/07/21 13:43:57;;;;;;;11.15;8.40;;;794.00;1536.00;;;;;;4927086;29;20031;-82
2021/07/21 13:46:28;;;;;;;14.48;8.25;;;794.10;1587.20;;;;;;4919372;29;20028;-83
2021/07/21 13:49:06;;;;;;;12.68;9.57;;;794.40;1536.00;;;;;;4919426;29;20474;-84
2021/07/21 13:51:56;;;;;;;10.80;7.68;;;819.30;1536.00;;;;;;4919836;29;20109;-84
2021/07/21 13:54:26;;;;;;;11.13;7.60;;;819.40;1536.00;;;;;;4919280;29;20116;-81
2021/07/21 13:57:06;;;;;;;10.00;7.88;;;819.60;1536.00;;;;;;4919544;29;20270;-83
2021/07/21 13:59:34;;;;;;;9.68;7.60;;;819.80;1510.40;;;;;;4936676;29;20040;-85
2021/07/21 14:02:00;;;;;;;10.25;7.18;;;819.70;1510.40;;;;;;4919067;29;20036;-84
2021/07/21 14:04:27;;;;;;;12.82;8.73;;;819.30;1536.00;;;;;;4919866;29;20043;-85
2021/07/21 14:06:53;;;;;;;11.50;7.25;;;819.30;1510.40;;;;;;4919287;29;20027;-82
2021/07/21 14:09:20;;;;;;;12.32;7.32;;;794.30;1536.00;;;;;;4919240;29;20382;-83
2021/07/21 14:11:48;;;;;;;10.90;7.90;;;793.90;1536.00;;;;;;4919363;29;20497;-80
2021/07/21 14:14:14;;;;;;;11.63;9.65;;;794.40;1561.60;;;;;;4919190;29;20032;-80
2021/07/21 14:16:42;;;;;;;10.35;7.35;;;819.30;1536.00;;;;;;4935703;29;20598;-80
2021/07/21 14:19:09;;;;;;;8.93;6.70;;;819.40;1510.40;;;;;;4919049;29;20028;-80
2021/07/21 14:21:35;;;;;;;11.68;7.10;;;819.30;1484.80;;;;;;4919468;29;20035;-81
2021/07/21 14:24:01;;;;;;;12.82;9.40;;;794.50;1484.80;;;;;;4935061;29;20390;-83
2021/07/21 14:26:31;;;;;;;12.48;7.28;;;794.50;1484.80;;;;;;4919345;29;20024;-81
2021/07/21 14:28:58;;;;;;;10.15;7.72;;;794.30;1510.40;;;;;;4919278;29;20035;-81
2021/07/21 14:31:24;;;;;;;12.43;7.43;;;794.10;1536.00;;;;;;4945045;29;20047;-83
2021/07/21 14:33:50;;;;;;;11.00;7.22;;;819.30;1510.40;;;;;;4938170;29;20053;-82
2021/07/21 14:36:17;;;;;;;11.85;6.97;;;768.90;1510.40;;;;;;4938200;29;20032;-81